sensor_id;sensor_type;location;lat;lon;timestamp;temperature;humidity
15048;DHT22;7621;52.350;13.308;2023-03-01T05:19:54;-2.70;98.30
15048;DHT22;7621;52.350;13.308;2023-03-01T05:22:20;-2.70;98.30
15048;DHT22;7621;52.350;13.308;2023-03-01T05:24:46;-2.70;98.20
15048;DHT22;7621;52.350;13.308;2023-03-01T05:27:12;-2.80;98.10
15048;DHT22;7621;52.350;13.308;2023-03-01T05:29:37;-2.80;98.20
15048;DHT22;7621;52.350;13.308;2023-03-01T05:32:04;-2.80;98.30
15048;DHT22;7621;52.350;13.308;2023-03-01T05:34:33;-2.80;98.40
15048;DHT22;7621;52.350;13.308;2023-03-01T05:36:59;-2.80;98.50
15048;DHT22;7621;52.350;13.308;2023-03-01T05:39:26;-2.80;98.50
15048;DHT22;7621;52.350;13.308;2023-03-01T05:41:57;-2.80;98.50
15048;DHT22;7621;52.350;13.308;2023-03-01T05:44:23;-2.80;98.60
15048;DHT22;7621;52.350;13.308;2023-03-01T05:46:49;-2.80;98.60
15048;DHT22;7621;52.350;13.308;2023-03-01T05:49:15;-2.80;98.60
15048;DHT22;7621;52.350;13.308;2023-03-01T05:51:42;-2.80;98.70
15048;DHT22;7621;52.350;13.308;2023-03-01T05:54:09;-2.70;98.80
15048;DHT22;7621;52.350;13.308;2023-03-01T05:56:37;-2.70;98.80
15048;DHT22;7621;52.350;13.308;2023-03-01T05:59:04;-2.70;98.80
15048;DHT22;7621;52.350;13.308;2023-03-01T06:01:31;-2.70;98.80
15048;DHT22;7621;52.350;13.308;2023-03-01T06:03:57;-2.70;98.70
15048;DHT22;7621;52.350;13.308;2023-03-01T06:06:23;-2.70;98.70
15048;DHT22;7621;52.350;13.308;2023-03-01T06:08:49;-2.60;98.80
15048;DHT22;7621;52.350;13.308;2023-03-01T17:26:10;5.80;63.70
15048;DHT22;7621;52.350;13.308;2023-03-01T17:28:37;5.70;64.10
15048;DHT22;7621;52.350;13.308;2023-03-01T17:31:04;5.60;63.80
15048;DHT22;7621;52.350;13.308;2023-03-01T17:33:30;5.50;64.20
15048;DHT22;7621;52.350;13.308;2023-03-01T17:35:56;5.50;65.20
15048;DHT22;7621;52.350;13.308;2023-03-01T17:38:22;5.40;65.80
15048;DHT22;7621;52.350;13.308;2023-03-01T17:40:48;5.40;66.40
15048;DHT22;7621;52.350;13.308;2023-03-01T17:43:15;5.30;66.90
15048;DHT22;7621;52.350;13.308;2023-03-01T17:45:42;5.30;67.50
15048;DHT22;7621;52.350;13.308;2023-03-01T17:48:12;5.20;67.80
15048;DHT22;7621;52.350;13.308;2023-03-01T17:50:38;5.10;68.40
15048;DHT22;7621;52.350;13.308;2023-03-01T17:53:05;5.10;68.70
15048;DHT22;7621;52.350;13.308;2023-03-01T17:55:35;5.00;69.10
15048;DHT22;7621;52.350;13.308;2023-03-01T17:58:00;5.00;69.30
15048;DHT22;7621;52.350;13.308;2023-03-01T18:00:27;4.90;69.50
15048;DHT22;7621;52.350;13.308;2023-03-01T18:02:53;4.80;69.30
15048;DHT22;7621;52.350;13.308;2023-03-01T18:05:18;4.80;68.80
15048;DHT22;7621;52.350;13.308;2023-03-01T18:07:44;4.70;68.80
15048;DHT22;7621;52.350;13.308;2023-03-01T18:10:10;4.70;69.10
15048;DHT22;7621;52.350;13.308;2023-03-01T18:12:36;4.60;69.50
15048;DHT22;7621;52.350;13.308;2023-03-01T18:15:03;4.50;69.60
15048;DHT22;7621;52.350;13.308;2023-03-01T18:17:28;4.50;69.90
15048;DHT22;7621;52.350;13.308;2023-03-01T18:19:54;4.40;69.90
15048;DHT22;7621;52.350;13.308;2023-03-01T18:22:21;4.40;69.90
15048;DHT22;7621;52.350;13.308;2023-03-01T18:24:47;4.30;69.70
15048;DHT22;7621;52.350;13.308;2023-03-01T18:27:13;4.30;69.60
15048;DHT22;7621;52.350;13.308;2023-03-01T18:29:39;4.20;69.70
15048;DHT22;7621;52.350;13.308;2023-03-01T18:32:05;4.10;70.00
15048;DHT22;7621;52.350;13.308;2023-03-01T18:34:31;4.10;70.40
15048;DHT22;7621;52.350;13.308;2023-03-01T18:36:57;4.00;70.50
15048;DHT22;7621;52.350;13.308;2023-03-01T18:39:23;4.00;70.60
15048;DHT22;7621;52.350;13.308;2023-03-01T18:41:49;3.90;70.90
15048;DHT22;7621;52.350;13.308;2023-03-01T18:44:15;3.80;71.10
15048;DHT22;7621;52.350;13.308;2023-03-01T18:46:40;3.80;71.40
15048;DHT22;7621;52.350;13.308;2023-03-01T18:49:07;3.80;71.80
15048;DHT22;7621;52.350;13.308;2023-03-01T18:51:32;3.70;72.10
15048;DHT22;7621;52.350;13.308;2023-03-01T18:54:00;3.70;72.40
15048;DHT22;7621;52.350;13.308;2023-03-01T18:56:28;3.60;72.70
15048;DHT22;7621;52.350;13.308;2023-03-01T18:58:53;3.60;73.10
15048;DHT22;7621;52.350;13.308;2023-03-01T19:01:22;3.50;73.40
15048;DHT22;7621;52.350;13.308;2023-03-01T19:03:49;3.50;73.60
15048;DHT22;7621;52.350;13.308;2023-03-01T19:06:15;3.50;74.00
15048;DHT22;7621;52.350;13.308;2023-03-01T19:08:40;3.40;74.30
15048;DHT22;7621;52.350;13.308;2023-03-01T19:11:07;3.30;74.50
15048;DHT22;7621;52.350;13.308;2023-03-01T19:13:35;3.30;74.90
15048;DHT22;7621;52.350;13.308;2023-03-01T19:16:07;3.30;75.30
15048;DHT22;7621;52.350;13.308;2023-03-01T19:18:34;3.20;75.50
15048;DHT22;7621;52.350;13.308;2023-03-01T19:21:01;3.20;75.60
15048;DHT22;7621;52.350;13.308;2023-03-01T19:23:29;3.20;76.20
15048;DHT22;7621;52.350;13.308;2023-03-01T19:26:03;3.10;76.30
15048;DHT22;7621;52.350;13.308;2023-03-01T19:28:29;3.10;76.50
15048;DHT22;7621;52.350;13.308;2023-03-01T19:31:03;3.10;76.30
15048;DHT22;7621;52.350;13.308;2023-03-01T19:33:31;3.00;76.30
15048;DHT22;7621;52.350;13.308;2023-03-01T19:35:57;3.00;76.40
15048;DHT22;7621;52.350;13.308;2023-03-01T19:38:24;2.90;76.50
15048;DHT22;7621;52.350;13.308;2023-03-01T19:40:50;2.90;76.60
15048;DHT22;7621;52.350;13.308;2023-03-01T19:43:16;2.80;76.90
15048;DHT22;7621;52.350;13.308;2023-03-01T19:45:42;2.70;77.20
15048;DHT22;7621;52.350;13.308;2023-03-01T19:48:07;2.70;77.50
15048;DHT22;7621;52.350;13.308;2023-03-01T19:50:33;2.70;77.60
15048;DHT22;7621;52.350;13.308;2023-03-01T19:52:59;2.60;77.70
15048;DHT22;7621;52.350;13.308;2023-03-01T19:55:24;2.60;78.00
15048;DHT22;7621;52.350;13.308;2023-03-01T19:57:50;2.60;78.10
15048;DHT22;7621;52.350;13.308;2023-03-01T20:00:16;2.50;78.30
15048;DHT22;7621;52.350;13.308;2023-03-01T20:02:41;2.50;78.60
15048;DHT22;7621;52.350;13.308;2023-03-01T20:05:08;2.50;78.90
15048;DHT22;7621;52.350;13.308;2023-03-01T20:07:33;2.50;79.00
15048;DHT22;7621;52.350;13.308;2023-03-01T20:09:59;2.50;79.10
15048;DHT22;7621;52.350;13.308;2023-03-01T20:12:25;2.50;79.00
15048;DHT22;7621;52.350;13.308;2023-03-01T20:14:50;2.40;79.20
15048;DHT22;7621;52.350;13.308;2023-03-01T20:17:20;2.40;79.50
15048;DHT22;7621;52.350;13.308;2023-03-01T20:19:45;2.30;79.60
15048;DHT22;7621;52.350;13.308;2023-03-01T20:22:11;2.30;79.70
15048;DHT22;7621;52.350;13.308;2023-03-01T20:24:42;2.30;79.70
15048;DHT22;7621;52.350;13.308;2023-03-01T20:27:08;2.30;79.70
15048;DHT22;7621;52.350;13.308;2023-03-01T20:29:34;2.20;79.50
15048;DHT22;7621;52.350;13.308;2023-03-01T20:32:00;2.20;79.70
15048;DHT22;7621;52.350;13.308;2023-03-01T20:34:25;2.10;79.70
15048;DHT22;7621;52.350;13.308;2023-03-01T20:36:51;2.10;79.80
15048;DHT22;7621;52.350;13.308;2023-03-01T20:39:16;2.10;80.00
15048;DHT22;7621;52.350;13.308;2023-03-01T20:41:42;2.00;80.10
15048;DHT22;7621;52.350;13.308;2023-03-01T20:44:08;2.00;80.30
15048;DHT22;7621;52.350;13.308;2023-03-01T20:46:35;2.00;80.80
15048;DHT22;7621;52.350;13.308;2023-03-01T20:49:01;2.00;80.60
15048;DHT22;7621;52.350;13.308;2023-03-01T20:51:26;2.00;80.80
15048;DHT22;7621;52.350;13.308;2023-03-01T20:53:52;2.00;81.10
15048;DHT22;7621;52.350;13.308;2023-03-01T20:56:19;1.90;81.30
15048;DHT22;7621;52.350;13.308;2023-03-01T20:58:45;1.90;81.50
15048;DHT22;7621;52.350;13.308;2023-03-01T21:01:15;1.90;81.80
15048;DHT22;7621;52.350;13.308;2023-03-01T21:03:41;1.80;82.10
